sensor_id;sensor_type;location;lat;lon;timestamp;P1;durP1;ratioP1;P2;durP2;ratioP2
8159;SDS011;27404;52.398;9.646;2022-12-29T00:02:23;2.93;;;1.87;;
8159;SDS011;27404;52.398;9.646;2022-12-29T00:04:49;2.47;;;1.60;;
8159;SDS011;27404;52.398;9.646;2022-12-29T00:07:15;2.23;;;1.73;;
8159;SDS011;27404;52.398;9.646;2022-12-29T00:09:41;3.40;;;1.80;;
8159;SDS011;27404;52.398;9.646;2022-12-29T00:12:07;2.97;;;2.13;;
8159;SDS011;27404;52.398;9.646;2022-12-29T00:14:32;2.23;;;1.70;;
8159;SDS011;27404;52.398;9.646;2022-12-29T00:17:16;3.47;;;1.70;;
8159;SDS011;27404;52.398;9.646;2022-12-29T00:19:42;3.63;;;1.87;;
8159;SDS011;27404;52.398;9.646;2022-12-29T00:22:26;2.20;;;1.60;;
8159;SDS011;27404;52.398;9.646;2022-12-29T00:25:10;2.10;;;1.50;;
8159;SDS011;27404;52.398;9.646;2022-12-29T00:27:55;3.17;;;1.90;;
8159;SDS011;27404;52.398;9.646;2022-12-29T00:30:39;2.47;;;1.60;;
8159;SDS011;27404;52.398;9.646;2022-12-29T00:33:31;2.43;;;1.60;;
8159;SDS011;27404;52.398;9.646;2022-12-29T00:36:50;3.50;;;1.77;;
8159;SDS011;27404;52.398;9.646;2022-12-29T00:39:09;2.20;;;1.70;;
8159;SDS011;27404;52.398;9.646;2022-12-29T00:41:55;2.67;;;1.43;;
8159;SDS011;27404;52.398;9.646;2022-12-29T00:44:39;2.30;;;1.47;;
8159;SDS011;27404;52.398;9.646;2022-12-29T00:47:05;3.80;;;1.60;;
8159;SDS011;27404;52.398;9.646;2022-12-29T00:49:30;3.23;;;1.80;;
8159;SDS011;27404;52.398;9.646;2022-12-29T00:51:57;2.00;;;1.60;;
8159;SDS011;27404;52.398;9.646;2022-12-29T00:54:22;2.07;;;1.40;;
8159;SDS011;27404;52.398;9.646;2022-12-29T00:56:49;2.20;;;1.60;;
8159;SDS011;27404;52.398;9.646;2022-12-29T00:59:15;4.43;;;1.60;;
8159;SDS011;27404;52.398;9.646;2022-12-29T01:01:41;1.90;;;1.50;;
8159;SDS011;27404;52.398;9.646;2022-12-29T01:04:07;3.27;;;1.60;;
8159;SDS011;27404;52.398;9.646;2022-12-29T01:06:33;2.83;;;1.83;;
8159;SDS011;27404;52.398;9.646;2022-12-29T01:09:00;2.03;;;1.60;;
8159;SDS011;27404;52.398;9.646;2022-12-29T01:11:44;2.63;;;1.60;;
8159;SDS011;27404;52.398;9.646;2022-12-29T01:14:10;2.37;;;1.37;;
8159;SDS011;27404;52.398;9.646;2022-12-29T01:16:35;3.83;;;1.63;;
8159;SDS011;27404;52.398;9.646;2022-12-29T01:19:01;2.73;;;1.27;;
8159;SDS011;27404;52.398;9.646;2022-12-29T01:21:28;1.73;;;1.30;;
8159;SDS011;27404;52.398;9.646;2022-12-29T01:23:53;2.57;;;1.40;;
8159;SDS011;27404;52.398;9.646;2022-12-29T01:26:19;2.67;;;1.50;;
8159;SDS011;27404;52.398;9.646;2022-12-29T01:28:44;2.77;;;1.43;;
8159;SDS011;27404;52.398;9.646;2022-12-29T01:31:10;3.60;;;1.63;;
8159;SDS011;27404;52.398;9.646;2022-12-29T01:33:37;5.20;;;1.60;;
8159;SDS011;27404;52.398;9.646;2022-12-29T01:36:06;2.60;;;1.20;;
8159;SDS011;27404;52.398;9.646;2022-12-29T01:38:34;3.00;;;1.40;;
8159;SDS011;27404;52.398;9.646;2022-12-29T01:41:01;4.43;;;1.50;;
8159;SDS011;27404;52.398;9.646;2022-12-29T01:48:55;2.17;;;1.37;;
8159;SDS011;27404;52.398;9.646;2022-12-29T01:51:41;2.13;;;1.50;;
8159;SDS011;27404;52.398;9.646;2022-12-29T01:54:22;1.20;;;1.00;;
8159;SDS011;27404;52.398;9.646;2022-12-29T01:56:53;1.87;;;1.20;;
8159;SDS011;27404;52.398;9.646;2022-12-29T01:59:23;2.40;;;1.30;;
8159;SDS011;27404;52.398;9.646;2022-12-29T02:01:52;1.77;;;1.20;;
8159;SDS011;27404;52.398;9.646;2022-12-29T02:04:19;1.13;;;1.00;;
8159;SDS011;27404;52.398;9.646;2022-12-29T02:06:46;2.47;;;1.10;;
8159;SDS011;27404;52.398;9.646;2022-12-29T02:09:16;2.20;;;1.30;;
8159;SDS011;27404;52.398;9.646;2022-12-29T02:11:42;3.40;;;1.33;;
8159;SDS011;27404;52.398;9.646;2022-12-29T02:14:11;7.33;;;5.00;;
8159;SDS011;27404;52.398;9.646;2022-12-29T02:21:59;1.80;;;1.23;;
8159;SDS011;27404;52.398;9.646;2022-12-29T02:27:38;2.10;;;1.33;;
8159;SDS011;27404;52.398;9.646;2022-12-29T02:30:26;2.23;;;1.50;;
8159;SDS011;27404;52.398;9.646;2022-12-29T02:36:20;4.40;;;1.40;;
8159;SDS011;27404;52.398;9.646;2022-12-29T02:44:31;1.57;;;1.10;;
8159;SDS011;27404;52.398;9.646;2022-12-29T02:47:10;2.13;;;1.40;;
8159;SDS011;27404;52.398;9.646;2022-12-29T02:49:48;2.23;;;1.40;;
8159;SDS011;27404;52.398;9.646;2022-12-29T02:52:26;1.97;;;1.23;;
8159;SDS011;27404;52.398;9.646;2022-12-29T02:54:59;1.87;;;1.10;;
8159;SDS011;27404;52.398;9.646;2022-12-29T02:59:53;1.73;;;1.17;;
8159;SDS011;27404;52.398;9.646;2022-12-29T03:11:05;3.73;;;1.10;;
8159;SDS011;27404;52.398;9.646;2022-12-29T03:14:18;4.33;;;1.20;;
8159;SDS011;27404;52.398;9.646;2022-12-29T03:17:16;1.93;;;1.10;;
8159;SDS011;27404;52.398;9.646;2022-12-29T03:20:06;2.03;;;1.17;;
8159;SDS011;27404;52.398;9.646;2022-12-29T03:22:35;1.63;;;0.90;;
8159;SDS011;27404;52.398;9.646;2022-12-29T03:27:39;1.93;;;1.13;;
8159;SDS011;27404;52.398;9.646;2022-12-29T03:30:10;3.13;;;1.10;;
8159;SDS011;27404;52.398;9.646;2022-12-29T03:32:47;3.00;;;1.10;;
8159;SDS011;27404;52.398;9.646;2022-12-29T03:35:16;1.93;;;1.10;;
8159;SDS011;27404;52.398;9.646;2022-12-29T03:40:52;1.10;;;1.00;;
8159;SDS011;27404;52.398;9.646;2022-12-29T03:43:20;2.70;;;1.00;;
8159;SDS011;27404;52.398;9.646;2022-12-29T03:45:47;1.67;;;1.10;;
8159;SDS011;27404;52.398;9.646;2022-12-29T03:48:12;2.27;;;1.20;;
8159;SDS011;27404;52.398;9.646;2022-12-29T03:50:38;1.67;;;0.90;;
8159;SDS011;27404;52.398;9.646;2022-12-29T03:53:03;2.13;;;1.20;;
8159;SDS011;27404;52.398;9.646;2022-12-29T03:55:29;1.30;;;0.90;;
8159;SDS011;27404;52.398;9.646;2022-12-29T03:57:54;1.70;;;1.00;;
8159;SDS011;27404;52.398;9.646;2022-12-29T04:00:19;1.50;;;0.90;;
8159;SDS011;27404;52.398;9.646;2022-12-29T04:02:45;1.57;;;1.17;;
8159;SDS011;27404;52.398;9.646;2022-12-29T04:05:10;1.30;;;0.80;;
8159;SDS011;27404;52.398;9.646;2022-12-29T04:07:36;1.40;;;0.77;;
8159;SDS011;27404;52.398;9.646;2022-12-29T04:10:01;1.17;;;0.60;;
8159;SDS011;27404;52.398;9.646;2022-12-29T04:12:28;1.00;;;0.80;;
8159;SDS011;27404;52.398;9.646;2022-12-29T04:14:53;1.43;;;0.90;;
8159;SDS011;27404;52.398;9.646;2022-12-29T04:17:18;1.70;;;1.00;;
8159;SDS011;27404;52.398;9.646;2022-12-29T04:19:44;2.97;;;0.83;;
8159;SDS011;27404;52.398;9.646;2022-12-29T04:22:09;1.10;;;0.77;;
8159;SDS011;27404;52.398;9.646;2022-12-29T04:24:36;1.73;;;0.90;;
8159;SDS011;27404;52.398;9.646;2022-12-29T04:27:02;1.47;;;0.77;;
8159;SDS011;27404;52.398;9.646;2022-12-29T04:29:27;2.00;;;0.70;;
8159;SDS011;27404;52.398;9.646;2022-12-29T04:31:52;1.97;;;0.90;;
8159;SDS011;27404;52.398;9.646;2022-12-29T04:34:18;1.30;;;0.77;;
8159;SDS011;27404;52.398;9.646;2022-12-29T04:36:43;0.60;;;0.53;;
8159;SDS011;27404;52.398;9.646;2022-12-29T04:39:09;1.83;;;0.70;;
8159;SDS011;27404;52.398;9.646;2022-12-29T04:41:34;1.00;;;0.70;;
8159;SDS011;27404;52.398;9.646;2022-12-29T04:44:00;1.00;;;0.60;;
8159;SDS011;27404;52.398;9.646;2022-12-29T04:46:25;0.90;;;0.60;;
8159;SDS011;27404;52.398;9.646;2022-12-29T04:48:51;1.13;;;0.60;;
8159;SDS011;27404;52.398;9.646;2022-12-29T04:51:16;0.80;;;0.50;;
8159;SDS011;27404;52.398;9.646;2022-12-29T04:53:41;1.03;;;0.50;;
8159;SDS011;27404;52.398;9.646;2022-12-29T04:56:07;0.60;;;0.47;;
8159;SDS011;27404;52.398;9.646;2022-12-29T04:58:34;0.83;;;0.60;;
8159;SDS011;27404;52.398;9.646;2022-12-29T05:00:59;2.73;;;0.80;;
8159;SDS011;27404;52.398;9.646;2022-12-29T05:03:25;3.13;;;0.70;;
8159;SDS011;27404;52.398;9.646;2022-12-29T05:05:52;1.10;;;0.83;;
8159;SDS011;27404;52.398;9.646;2022-12-29T05:08:19;1.90;;;0.60;;
8159;SDS011;27404;52.398;9.646;2022-12-29T05:10:45;0.90;;;0.60;;
8159;SDS011;27404;52.398;9.646;2022-12-29T05:13:10;0.83;;;0.60;;
8159;SDS011;27404;52.398;9.646;2022-12-29T05:15:36;1.33;;;0.60;;
8159;SDS011;27404;52.398;9.646;2022-12-29T05:18:01;1.00;;;0.60;;
8159;SDS011;27404;52.398;9.646;2022-12-29T05:20:27;0.70;;;0.50;;
8159;SDS011;27404;52.398;9.646;2022-12-29T05:22:52;0.73;;;0.57;;
8159;SDS011;27404;52.398;9.646;2022-12-29T05:25:18;2.57;;;0.70;;
8159;SDS011;27404;52.398;9.646;2022-12-29T05:27:43;0.50;;;0.40;;
8159;SDS011;27404;52.398;9.646;2022-12-29T05:30:09;0.70;;;0.50;;
8159;SDS011;27404;52.398;9.646;2022-12-29T05:32:35;0.70;;;0.50;;
8159;SDS011;27404;52.398;9.646;2022-12-29T05:35:00;0.90;;;0.37;;
8159;SDS011;27404;52.398;9.646;2022-12-29T05:37:25;0.90;;;0.60;;
8159;SDS011;27404;52.398;9.646;2022-12-29T05:39:51;4.23;;;0.70;;
8159;SDS011;27404;52.398;9.646;2022-12-29T05:42:16;1.47;;;0.60;;
8159;SDS011;27404;52.398;9.646;2022-12-29T05:44:42;1.33;;;0.50;;
8159;SDS011;27404;52.398;9.646;2022-12-29T05:47:07;1.17;;;0.50;;
8159;SDS011;27404;52.398;9.646;2022-12-29T05:49:32;3.70;;;0.63;;
8159;SDS011;27404;52.398;9.646;2022-12-29T05:51:58;0.53;;;0.40;;
8159;SDS011;27404;52.398;9.646;2022-12-29T05:54:23;5.87;;;0.60;;
8159;SDS011;27404;52.398;9.646;2022-12-29T05:56:49;0.90;;;0.40;;
8159;SDS011;27404;52.398;9.646;2022-12-29T05:59:14;0.93;;;0.50;;
8159;SDS011;27404;52.398;9.646;2022-12-29T06:01:40;0.83;;;0.33;;
8159;SDS011;27404;52.398;9.646;2022-12-29T06:04:05;0.80;;;0.40;;
8159;SDS011;27404;52.398;9.646;2022-12-29T06:06:30;1.47;;;0.50;;
8159;SDS011;27404;52.398;9.646;2022-12-29T06:08:56;1.20;;;0.50;;
8159;SDS011;27404;52.398;9.646;2022-12-29T06:11:21;1.33;;;0.50;;
8159;SDS011;27404;52.398;9.646;2022-12-29T06:13:47;1.00;;;0.67;;
8159;SDS011;27404;52.398;9.646;2022-12-29T06:16:12;1.10;;;0.60;;
8159;SDS011;27404;52.398;9.646;2022-12-29T06:18:37;2.13;;;0.60;;
8159;SDS011;27404;52.398;9.646;2022-12-29T06:21:03;0.60;;;0.40;;
8159;SDS011;27404;52.398;9.646;2022-12-29T06:23:30;1.17;;;0.63;;
8159;SDS011;27404;52.398;9.646;2022-12-29T06:25:56;1.00;;;0.70;;
8159;SDS011;27404;52.398;9.646;2022-12-29T06:28:22;1.87;;;0.60;;
8159;SDS011;27404;52.398;9.646;2022-12-29T06:30:48;1.73;;;0.57;;
8159;SDS011;27404;52.398;9.646;2022-12-29T06:33:14;0.87;;;0.60;;
8159;SDS011;27404;52.398;9.646;2022-12-29T06:35:41;0.70;;;0.50;;
8159;SDS011;27404;52.398;9.646;2022-12-29T06:38:07;0.90;;;0.80;;
8159;SDS011;27404;52.398;9.646;2022-12-29T06:40:33;1.43;;;0.90;;
8159;SDS011;27404;52.398;9.646;2022-12-29T06:42:58;1.60;;;1.07;;
8159;SDS011;27404;52.398;9.646;2022-12-29T06:45:23;1.67;;;1.13;;
8159;SDS011;27404;52.398;9.646;2022-12-29T06:47:49;1.60;;;0.60;;
8159;SDS011;27404;52.398;9.646;2022-12-29T06:50:14;1.60;;;1.00;;
8159;SDS011;27404;52.398;9.646;2022-12-29T06:52:40;0.83;;;0.60;;
8159;SDS011;27404;52.398;9.646;2022-12-29T06:55:06;1.23;;;0.77;;
8159;SDS011;27404;52.398;9.646;2022-12-29T06:57:31;0.77;;;0.57;;
8159;SDS011;27404;52.398;9.646;2022-12-29T06:59:57;1.30;;;1.00;;
8159;SDS011;27404;52.398;9.646;2022-12-29T07:02:22;1.63;;;0.67;;
8159;SDS011;27404;52.398;9.646;2022-12-29T07:04:50;0.93;;;0.60;;
8159;SDS011;27404;52.398;9.646;2022-12-29T07:07:17;0.83;;;0.60;;
8159;SDS011;27404;52.398;9.646;2022-12-29T07:09:43;1.20;;;0.80;;
8159;SDS011;27404;52.398;9.646;2022-12-29T07:12:08;3.23;;;0.53;;
8159;SDS011;27404;52.398;9.646;2022-12-29T07:14:34;3.50;;;0.80;;
8159;SDS011;27404;52.398;9.646;2022-12-29T07:17:00;1.53;;;0.60;;
8159;SDS011;27404;52.398;9.646;2022-12-29T07:19:26;1.97;;;0.50;;
8159;SDS011;27404;52.398;9.646;2022-12-29T07:21:51;0.50;;;0.30;;
8159;SDS011;27404;52.398;9.646;2022-12-29T07:24:19;1.67;;;0.40;;
8159;SDS011;27404;52.398;9.646;2022-12-29T07:26:45;1.23;;;0.40;;
8159;SDS011;27404;52.398;9.646;2022-12-29T07:29:10;2.33;;;0.50;;
8159;SDS011;27404;52.398;9.646;2022-12-29T07:31:36;1.77;;;0.30;;
8159;SDS011;27404;52.398;9.646;2022-12-29T07:34:01;1.60;;;0.37;;
8159;SDS011;27404;52.398;9.646;2022-12-29T07:36:26;3.50;;;0.63;;
8159;SDS011;27404;52.398;9.646;2022-12-29T07:38:52;1.03;;;0.30;;
8159;SDS011;27404;52.398;9.646;2022-12-29T07:41:17;2.27;;;0.40;;
8159;SDS011;27404;52.398;9.646;2022-12-29T07:43:46;2.33;;;0.50;;
8159;SDS011;27404;52.398;9.646;2022-12-29T07:46:12;0.87;;;0.37;;
8159;SDS011;27404;52.398;9.646;2022-12-29T07:48:38;1.30;;;0.40;;
8159;SDS011;27404;52.398;9.646;2022-12-29T07:51:03;0.47;;;0.30;;
8159;SDS011;27404;52.398;9.646;2022-12-29T07:53:29;2.00;;;0.50;;
8159;SDS011;27404;52.398;9.646;2022-12-29T07:55:54;0.40;;;0.30;;
8159;SDS011;27404;52.398;9.646;2022-12-29T07:58:20;0.83;;;0.40;;
8159;SDS011;27404;52.398;9.646;2022-12-29T08:00:46;0.73;;;0.40;;
8159;SDS011;27404;52.398;9.646;2022-12-29T08:03:11;2.13;;;0.50;;
8159;SDS011;27404;52.398;9.646;2022-12-29T08:05:37;1.13;;;0.70;;
8159;SDS011;27404;52.398;9.646;2022-12-29T08:08:02;2.50;;;0.73;;
8159;SDS011;27404;52.398;9.646;2022-12-29T08:10:28;0.90;;;0.57;;
8159;SDS011;27404;52.398;9.646;2022-12-29T08:12:53;3.07;;;0.70;;
8159;SDS011;27404;52.398;9.646;2022-12-29T08:15:19;1.53;;;0.57;;
8159;SDS011;27404;52.398;9.646;2022-12-29T08:17:44;0.93;;;0.50;;
8159;SDS011;27404;52.398;9.646;2022-12-29T08:20:10;2.40;;;0.60;;
8159;SDS011;27404;52.398;9.646;2022-12-29T08:22:35;1.90;;;0.90;;
8159;SDS011;27404;52.398;9.646;2022-12-29T08:25:01;2.03;;;1.00;;
8159;SDS011;27404;52.398;9.646;2022-12-29T08:27:27;2.73;;;1.00;;
8159;SDS011;27404;52.398;9.646;2022-12-29T08:29:52;2.77;;;0.70;;
8159;SDS011;27404;52.398;9.646;2022-12-29T08:32:18;3.13;;;0.80;;
8159;SDS011;27404;52.398;9.646;2022-12-29T08:34:43;2.13;;;0.80;;
8159;SDS011;27404;52.398;9.646;2022-12-29T08:37:09;2.73;;;0.97;;
8159;SDS011;27404;52.398;9.646;2022-12-29T08:39:34;4.80;;;1.00;;
8159;SDS011;27404;52.398;9.646;2022-12-29T08:42:00;4.13;;;0.80;;
8159;SDS011;27404;52.398;9.646;2022-12-29T08:44:25;1.57;;;0.60;;
8159;SDS011;27404;52.398;9.646;2022-12-29T08:46:51;2.70;;;1.10;;
8159;SDS011;27404;52.398;9.646;2022-12-29T08:49:16;2.80;;;0.80;;
8159;SDS011;27404;52.398;9.646;2022-12-29T08:51:42;2.03;;;0.60;;
8159;SDS011;27404;52.398;9.646;2022-12-29T08:54:07;2.93;;;0.67;;
8159;SDS011;27404;52.398;9.646;2022-12-29T08:56:33;5.57;;;1.03;;
8159;SDS011;27404;52.398;9.646;2022-12-29T08:58:58;2.07;;;0.73;;
8159;SDS011;27404;52.398;9.646;2022-12-29T09:01:24;2.90;;;0.87;;
8159;SDS011;27404;52.398;9.646;2022-12-29T09:03:49;2.17;;;0.80;;
8159;SDS011;27404;52.398;9.646;2022-12-29T09:06:16;2.67;;;0.83;;
8159;SDS011;27404;52.398;9.646;2022-12-29T09:08:43;5.00;;;0.83;;
8159;SDS011;27404;52.398;9.646;2022-12-29T09:11:13;3.83;;;0.73;;
8159;SDS011;27404;52.398;9.646;2022-12-29T09:13:41;2.60;;;0.80;;
8159;SDS011;27404;52.398;9.646;2022-12-29T09:16:07;5.87;;;1.00;;
8159;SDS011;27404;52.398;9.646;2022-12-29T09:18:33;2.23;;;0.87;;
8159;SDS011;27404;52.398;9.646;2022-12-29T09:20:59;4.67;;;0.90;;
8159;SDS011;27404;52.398;9.646;2022-12-29T09:23:26;4.70;;;1.63;;
8159;SDS011;27404;52.398;9.646;2022-12-29T09:25:52;3.57;;;1.00;;
8159;SDS011;27404;52.398;9.646;2022-12-29T09:28:18;3.10;;;0.90;;
8159;SDS011;27404;52.398;9.646;2022-12-29T09:30:44;3.63;;;1.00;;
8159;SDS011;27404;52.398;9.646;2022-12-29T09:33:09;3.63;;;0.93;;
8159;SDS011;27404;52.398;9.646;2022-12-29T09:35:35;3.07;;;0.80;;
8159;SDS011;27404;52.398;9.646;2022-12-29T09:38:01;3.67;;;1.27;;
8159;SDS011;27404;52.398;9.646;2022-12-29T09:40:27;5.13;;;1.03;;
8159;SDS011;27404;52.398;9.646;2022-12-29T09:48:37;5.93;;;1.10;;
8159;SDS011;27404;52.398;9.646;2022-12-29T09:51:11;3.00;;;1.00;;
8159;SDS011;27404;52.398;9.646;2022-12-29T09:53:41;4.53;;;1.30;;
8159;SDS011;27404;52.398;9.646;2022-12-29T09:56:13;3.37;;;1.57;;
8159;SDS011;27404;52.398;9.646;2022-12-29T09:59:02;3.90;;;1.00;;
8159;SDS011;27404;52.398;9.646;2022-12-29T10:01:45;4.57;;;1.33;;
8159;SDS011;27404;52.398;9.646;2022-12-29T10:04:16;2.23;;;1.07;;
8159;SDS011;27404;52.398;9.646;2022-12-29T10:06:46;3.13;;;1.20;;
8159;SDS011;27404;52.398;9.646;2022-12-29T10:11:57;2.63;;;1.40;;
8159;SDS011;27404;52.398;9.646;2022-12-29T10:20:59;3.30;;;1.30;;
8159;SDS011;27404;52.398;9.646;2022-12-29T10:26:16;1.93;;;1.30;;
8159;SDS011;27404;52.398;9.646;2022-12-29T10:29:03;3.53;;;1.50;;
8159;SDS011;27404;52.398;9.646;2022-12-29T10:31:38;2.60;;;1.40;;
8159;SDS011;27404;52.398;9.646;2022-12-29T10:36:49;1.90;;;1.10;;
8159;SDS011;27404;52.398;9.646;2022-12-29T10:44:29;2.07;;;0.90;;
8159;SDS011;27404;52.398;9.646;2022-12-29T10:47:04;2.03;;;1.13;;
8159;SDS011;27404;52.398;9.646;2022-12-29T10:49:36;3.17;;;1.20;;
8159;SDS011;27404;52.398;9.646;2022-12-29T10:52:05;5.30;;;1.30;;
8159;SDS011;27404;52.398;9.646;2022-12-29T10:54:36;5.30;;;1.20;;
8159;SDS011;27404;52.398;9.646;2022-12-29T10:57:11;3.47;;;1.40;;
8159;SDS011;27404;52.398;9.646;2022-12-29T10:59:45;1.53;;;0.90;;
8159;SDS011;27404;52.398;9.646;2022-12-29T11:02:16;2.57;;;1.10;;
8159;SDS011;27404;52.398;9.646;2022-12-29T11:07:35;2.37;;;1.20;;
8159;SDS011;27404;52.398;9.646;2022-12-29T11:10:21;2.23;;;1.20;;
8159;SDS011;27404;52.398;9.646;2022-12-29T11:13:02;2.80;;;1.30;;
8159;SDS011;27404;52.398;9.646;2022-12-29T11:15:45;4.13;;;1.10;;
8159;SDS011;27404;52.398;9.646;2022-12-29T11:20:47;3.90;;;1.20;;
8159;SDS011;27404;52.398;9.646;2022-12-29T11:23:25;2.93;;;1.10;;
8159;SDS011;27404;52.398;9.646;2022-12-29T11:28:36;5.23;;;1.30;;
8159;SDS011;27404;52.398;9.646;2022-12-29T11:31:04;4.33;;;1.33;;
8159;SDS011;27404;52.398;9.646;2022-12-29T11:33:31;1.37;;;1.17;;
8159;SDS011;27404;52.398;9.646;2022-12-29T11:36:06;6.57;;;1.50;;
8159;SDS011;27404;52.398;9.646;2022-12-29T11:38:53;7.60;;;1.50;;
8159;SDS011;27404;52.398;9.646;2022-12-29T11:41:29;5.27;;;1.30;;
8159;SDS011;27404;52.398;9.646;2022-12-29T11:44:01;5.77;;;1.33;;
8159;SDS011;27404;52.398;9.646;2022-12-29T11:46:33;3.53;;;1.27;;
8159;SDS011;27404;52.398;9.646;2022-12-29T11:49:02;4.03;;;1.20;;
8159;SDS011;27404;52.398;9.646;2022-12-29T11:51:41;7.83;;;1.17;;
8159;SDS011;27404;52.398;9.646;2022-12-29T11:54:10;4.80;;;1.07;;
8159;SDS011;27404;52.398;9.646;2022-12-29T11:56:47;5.47;;;1.10;;
8159;SDS011;27404;52.398;9.646;2022-12-29T12:01:59;4.23;;;1.10;;
8159;SDS011;27404;52.398;9.646;2022-12-29T12:04:34;2.07;;;1.13;;
8159;SDS011;27404;52.398;9.646;2022-12-29T12:09:36;4.37;;;1.30;;
8159;SDS011;27404;52.398;9.646;2022-12-29T12:12:09;6.67;;;1.13;;
8159;SDS011;27404;52.398;9.646;2022-12-29T12:14:53;5.57;;;1.53;;
8159;SDS011;27404;52.398;9.646;2022-12-29T12:20:36;6.07;;;1.40;;
8159;SDS011;27404;52.398;9.646;2022-12-29T12:23:19;4.37;;;1.10;;
8159;SDS011;27404;52.398;9.646;2022-12-29T12:26:19;5.20;;;1.00;;
8159;SDS011;27404;52.398;9.646;2022-12-29T12:28:52;4.83;;;1.00;;
8159;SDS011;27404;52.398;9.646;2022-12-29T12:32:24;6.37;;;1.77;;
8159;SDS011;27404;52.398;9.646;2022-12-29T12:34:28;6.93;;;1.10;;
8159;SDS011;27404;52.398;9.646;2022-12-29T12:39:39;4.63;;;0.87;;
8159;SDS011;27404;52.398;9.646;2022-12-29T12:53:28;2.50;;;0.90;;
8159;SDS011;27404;52.398;9.646;2022-12-29T12:58:55;4.77;;;1.20;;
8159;SDS011;27404;52.398;9.646;2022-12-29T13:21:05;4.53;;;1.00;;
8159;SDS011;27404;52.398;9.646;2022-12-29T13:37:22;6.23;;;1.03;;
8159;SDS011;27404;52.398;9.646;2022-12-29T13:39:52;3.43;;;1.10;;
8159;SDS011;27404;52.398;9.646;2022-12-29T13:42:35;5.40;;;1.30;;
8159;SDS011;27404;52.398;9.646;2022-12-29T13:45:05;4.80;;;1.17;;
8159;SDS011;27404;52.398;9.646;2022-12-29T13:47:36;5.13;;;1.20;;
8159;SDS011;27404;52.398;9.646;2022-12-29T13:50:20;6.07;;;1.17;;
8159;SDS011;27404;52.398;9.646;2022-12-29T13:58:46;4.10;;;1.20;;
8159;SDS011;27404;52.398;9.646;2022-12-29T14:04:13;4.67;;;0.93;;
8159;SDS011;27404;52.398;9.646;2022-12-29T14:06:45;4.77;;;1.30;;
8159;SDS011;27404;52.398;9.646;2022-12-29T14:17:35;2.77;;;1.00;;
8159;SDS011;27404;52.398;9.646;2022-12-29T14:20:02;3.47;;;1.10;;
8159;SDS011;27404;52.398;9.646;2022-12-29T14:22:32;4.83;;;1.30;;
8159;SDS011;27404;52.398;9.646;2022-12-29T14:24:58;2.03;;;0.97;;
8159;SDS011;27404;52.398;9.646;2022-12-29T14:29:52;6.63;;;1.63;;
8159;SDS011;27404;52.398;9.646;2022-12-29T14:34:46;7.83;;;1.33;;
8159;SDS011;27404;52.398;9.646;2022-12-29T14:42:45;4.67;;;1.13;;
8159;SDS011;27404;52.398;9.646;2022-12-29T14:47:41;6.37;;;1.37;;
8159;SDS011;27404;52.398;9.646;2022-12-29T14:53:00;4.20;;;1.40;;
8159;SDS011;27404;52.398;9.646;2022-12-29T14:58:05;4.07;;;1.47;;
8159;SDS011;27404;52.398;9.646;2022-12-29T15:00:37;7.43;;;2.27;;
8159;SDS011;27404;52.398;9.646;2022-12-29T15:03:05;5.23;;;2.13;;
8159;SDS011;27404;52.398;9.646;2022-12-29T15:05:43;4.33;;;1.70;;
8159;SDS011;27404;52.398;9.646;2022-12-29T15:08:10;3.50;;;1.20;;
8159;SDS011;27404;52.398;9.646;2022-12-29T15:10:39;4.37;;;1.00;;
8159;SDS011;27404;52.398;9.646;2022-12-29T15:13:18;4.13;;;1.60;;
8159;SDS011;27404;52.398;9.646;2022-12-29T15:15:47;5.53;;;2.13;;
8159;SDS011;27404;52.398;9.646;2022-12-29T15:18:23;5.80;;;1.13;;
8159;SDS011;27404;52.398;9.646;2022-12-29T15:20:51;8.90;;;1.20;;
8159;SDS011;27404;52.398;9.646;2022-12-29T15:23:22;6.80;;;1.50;;
8159;SDS011;27404;52.398;9.646;2022-12-29T15:25:58;5.93;;;1.40;;
8159;SDS011;27404;52.398;9.646;2022-12-29T15:28:27;5.73;;;1.20;;
8159;SDS011;27404;52.398;9.646;2022-12-29T15:31:02;5.73;;;1.60;;
8159;SDS011;27404;52.398;9.646;2022-12-29T15:33:30;6.37;;;1.30;;
8159;SDS011;27404;52.398;9.646;2022-12-29T15:35:56;5.87;;;2.30;;
8159;SDS011;27404;52.398;9.646;2022-12-29T15:38:28;7.00;;;2.27;;
8159;SDS011;27404;52.398;9.646;2022-12-29T15:44:26;2.97;;;1.37;;
8159;SDS011;27404;52.398;9.646;2022-12-29T15:46:57;6.63;;;1.20;;
8159;SDS011;27404;52.398;9.646;2022-12-29T15:49:26;3.33;;;1.10;;
8159;SDS011;27404;52.398;9.646;2022-12-29T15:51:52;4.70;;;1.27;;
8159;SDS011;27404;52.398;9.646;2022-12-29T15:54:18;8.83;;;3.40;;
8159;SDS011;27404;52.398;9.646;2022-12-29T15:56:46;10.23;;;2.50;;
8159;SDS011;27404;52.398;9.646;2022-12-29T16:02:10;4.13;;;1.43;;
8159;SDS011;27404;52.398;9.646;2022-12-29T16:04:36;4.13;;;1.80;;
8159;SDS011;27404;52.398;9.646;2022-12-29T16:07:03;5.60;;;2.50;;
8159;SDS011;27404;52.398;9.646;2022-12-29T16:09:34;5.00;;;2.03;;
8159;SDS011;27404;52.398;9.646;2022-12-29T16:12:14;5.43;;;1.90;;
8159;SDS011;27404;52.398;9.646;2022-12-29T16:14:41;4.57;;;1.80;;
8159;SDS011;27404;52.398;9.646;2022-12-29T16:17:12;9.20;;;2.20;;
8159;SDS011;27404;52.398;9.646;2022-12-29T16:19:40;5.40;;;1.40;;
8159;SDS011;27404;52.398;9.646;2022-12-29T16:22:25;5.43;;;1.40;;
8159;SDS011;27404;52.398;9.646;2022-12-29T16:27:43;9.80;;;1.90;;
8159;SDS011;27404;52.398;9.646;2022-12-29T16:30:28;8.03;;;1.87;;
8159;SDS011;27404;52.398;9.646;2022-12-29T16:32:59;8.10;;;2.03;;
8159;SDS011;27404;52.398;9.646;2022-12-29T16:35:27;5.70;;;1.50;;
8159;SDS011;27404;52.398;9.646;2022-12-29T16:40:57;8.07;;;1.97;;
8159;SDS011;27404;52.398;9.646;2022-12-29T16:43:34;4.30;;;1.50;;
8159;SDS011;27404;52.398;9.646;2022-12-29T16:49:02;5.93;;;2.13;;
8159;SDS011;27404;52.398;9.646;2022-12-29T16:51:29;6.90;;;2.40;;
8159;SDS011;27404;52.398;9.646;2022-12-29T16:53:57;7.40;;;2.10;;
8159;SDS011;27404;52.398;9.646;2022-12-29T16:56:25;7.63;;;2.17;;
8159;SDS011;27404;52.398;9.646;2022-12-29T16:59:03;10.03;;;2.50;;
8159;SDS011;27404;52.398;9.646;2022-12-29T17:01:37;7.33;;;1.80;;
8159;SDS011;27404;52.398;9.646;2022-12-29T17:04:07;8.77;;;2.30;;
8159;SDS011;27404;52.398;9.646;2022-12-29T17:06:35;6.97;;;2.30;;
8159;SDS011;27404;52.398;9.646;2022-12-29T17:09:00;7.10;;;2.90;;
8159;SDS011;27404;52.398;9.646;2022-12-29T17:11:27;3.97;;;1.57;;
8159;SDS011;27404;52.398;9.646;2022-12-29T17:16:47;5.70;;;1.77;;
8159;SDS011;27404;52.398;9.646;2022-12-29T17:19:17;5.63;;;1.57;;
8159;SDS011;27404;52.398;9.646;2022-12-29T17:21:45;5.93;;;2.07;;
8159;SDS011;27404;52.398;9.646;2022-12-29T17:24:15;6.30;;;1.77;;
8159;SDS011;27404;52.398;9.646;2022-12-29T17:26:43;4.57;;;1.70;;
8159;SDS011;27404;52.398;9.646;2022-12-29T17:32:09;5.63;;;1.57;;
8159;SDS011;27404;52.398;9.646;2022-12-29T17:34:38;7.13;;;1.63;;
8159;SDS011;27404;52.398;9.646;2022-12-29T17:39:42;8.37;;;1.60;;
8159;SDS011;27404;52.398;9.646;2022-12-29T17:42:07;5.50;;;1.50;;
8159;SDS011;27404;52.398;9.646;2022-12-29T17:44:35;5.63;;;1.50;;
8159;SDS011;27404;52.398;9.646;2022-12-29T17:47:01;3.80;;;1.37;;
8159;SDS011;27404;52.398;9.646;2022-12-29T17:49:26;9.53;;;3.00;;
8159;SDS011;27404;52.398;9.646;2022-12-29T17:51:52;7.53;;;2.83;;
8159;SDS011;27404;52.398;9.646;2022-12-29T17:54:22;6.60;;;1.60;;
8159;SDS011;27404;52.398;9.646;2022-12-29T17:56:49;4.03;;;1.30;;
8159;SDS011;27404;52.398;9.646;2022-12-29T17:59:15;5.37;;;1.60;;
8159;SDS011;27404;52.398;9.646;2022-12-29T18:01:42;4.73;;;1.37;;
8159;SDS011;27404;52.398;9.646;2022-12-29T18:04:15;7.83;;;2.50;;
8159;SDS011;27404;52.398;9.646;2022-12-29T18:06:42;5.13;;;1.10;;
8159;SDS011;27404;52.398;9.646;2022-12-29T18:09:08;5.37;;;1.60;;
8159;SDS011;27404;52.398;9.646;2022-12-29T18:11:35;4.50;;;1.60;;
8159;SDS011;27404;52.398;9.646;2022-12-29T18:14:04;7.27;;;2.00;;
8159;SDS011;27404;52.398;9.646;2022-12-29T18:16:30;3.40;;;1.13;;
8159;SDS011;27404;52.398;9.646;2022-12-29T18:18:55;1.63;;;1.10;;
8159;SDS011;27404;52.398;9.646;2022-12-29T18:21:21;2.50;;;0.97;;
8159;SDS011;27404;52.398;9.646;2022-12-29T18:23:48;4.93;;;1.00;;
8159;SDS011;27404;52.398;9.646;2022-12-29T18:26:19;3.90;;;1.63;;